sensor_id;sensor_type;location;lat;lon;timestamp;P1;durP1;ratioP1;P2;durP2;ratioP2
31768;SDS011;18342;52.132;21.048;2022-08-07T00:02:04;5.22;;;1.65;;
31768;SDS011;18342;52.132;21.048;2022-08-07T00:04:30;4.60;;;1.95;;
31768;SDS011;18342;52.132;21.048;2022-08-07T00:06:56;1.63;;;1.42;;
31768;SDS011;18342;52.132;21.048;2022-08-07T00:09:22;3.88;;;1.58;;
31768;SDS011;18342;52.132;21.048;2022-08-07T00:11:47;5.00;;;1.55;;
31768;SDS011;18342;52.132;21.048;2022-08-07T00:14:13;2.65;;;1.70;;
31768;SDS011;18342;52.132;21.048;2022-08-07T00:16:39;2.22;;;1.55;;
31768;SDS011;18342;52.132;21.048;2022-08-07T00:19:05;3.30;;;1.83;;
31768;SDS011;18342;52.132;21.048;2022-08-07T00:21:30;5.75;;;1.60;;
31768;SDS011;18342;52.132;21.048;2022-08-07T00:23:56;5.22;;;1.95;;
31768;SDS011;18342;52.132;21.048;2022-08-07T00:26:21;2.15;;;1.50;;
31768;SDS011;18342;52.132;21.048;2022-08-07T00:28:47;4.30;;;1.67;;
31768;SDS011;18342;52.132;21.048;2022-08-07T00:31:13;2.83;;;1.70;;
31768;SDS011;18342;52.132;21.048;2022-08-07T00:33:39;4.93;;;1.90;;
31768;SDS011;18342;52.132;21.048;2022-08-07T00:36:05;2.28;;;1.75;;
31768;SDS011;18342;52.132;21.048;2022-08-07T00:38:32;22.20;;;1.90;;
31768;SDS011;18342;52.132;21.048;2022-08-07T00:41:00;4.10;;;1.65;;
31768;SDS011;18342;52.132;21.048;2022-08-07T00:43:27;2.92;;;1.70;;
31768;SDS011;18342;52.132;21.048;2022-08-07T00:45:52;4.13;;;2.25;;
31768;SDS011;18342;52.132;21.048;2022-08-07T00:48:18;4.15;;;2.10;;
31768;SDS011;18342;52.132;21.048;2022-08-07T00:50:44;10.23;;;2.00;;
31768;SDS011;18342;52.132;21.048;2022-08-07T00:53:10;2.22;;;1.48;;
31768;SDS011;18342;52.132;21.048;2022-08-07T00:55:36;6.75;;;1.67;;
31768;SDS011;18342;52.132;21.048;2022-08-07T00:58:02;3.15;;;1.65;;
31768;SDS011;18342;52.132;21.048;2022-08-07T01:00:28;4.88;;;1.80;;
31768;SDS011;18342;52.132;21.048;2022-08-07T01:02:54;2.33;;;1.88;;
31768;SDS011;18342;52.132;21.048;2022-08-07T01:05:20;4.55;;;1.73;;
31768;SDS011;18342;52.132;21.048;2022-08-07T01:07:47;4.32;;;2.08;;
31768;SDS011;18342;52.132;21.048;2022-08-07T01:10:13;3.83;;;1.50;;
31768;SDS011;18342;52.132;21.048;2022-08-07T01:12:40;4.63;;;1.88;;
31768;SDS011;18342;52.132;21.048;2022-08-07T01:15:07;1.98;;;1.65;;
31768;SDS011;18342;52.132;21.048;2022-08-07T01:17:33;2.92;;;1.60;;
31768;SDS011;18342;52.132;21.048;2022-08-07T01:20:04;2.58;;;1.65;;
31768;SDS011;18342;52.132;21.048;2022-08-07T01:22:32;6.18;;;1.98;;
31768;SDS011;18342;52.132;21.048;2022-08-07T01:24:59;4.05;;;1.50;;
31768;SDS011;18342;52.132;21.048;2022-08-07T01:27:26;4.50;;;1.75;;
31768;SDS011;18342;52.132;21.048;2022-08-07T01:29:52;3.45;;;1.50;;
31768;SDS011;18342;52.132;21.048;2022-08-07T01:32:17;2.00;;;1.48;;
31768;SDS011;18342;52.132;21.048;2022-08-07T01:34:43;4.82;;;1.58;;
31768;SDS011;18342;52.132;21.048;2022-08-07T01:37:09;3.80;;;1.52;;
31768;SDS011;18342;52.132;21.048;2022-08-07T01:39:37;3.38;;;1.70;;
31768;SDS011;18342;52.132;21.048;2022-08-07T01:42:03;3.10;;;1.23;;
31768;SDS011;18342;52.132;21.048;2022-08-07T01:44:29;2.97;;;1.58;;
31768;SDS011;18342;52.132;21.048;2022-08-07T01:46:56;2.75;;;1.52;;
31768;SDS011;18342;52.132;21.048;2022-08-07T01:49:22;5.72;;;1.92;;
31768;SDS011;18342;52.132;21.048;2022-08-07T01:51:48;4.13;;;1.60;;
31768;SDS011;18342;52.132;21.048;2022-08-07T01:54:14;3.55;;;1.63;;
31768;SDS011;18342;52.132;21.048;2022-08-07T01:56:59;4.60;;;1.60;;
31768;SDS011;18342;52.132;21.048;2022-08-07T01:59:31;2.63;;;1.60;;
31768;SDS011;18342;52.132;21.048;2022-08-07T02:02:27;4.18;;;1.67;;
31768;SDS011;18342;52.132;21.048;2022-08-07T02:05:16;5.28;;;1.50;;
31768;SDS011;18342;52.132;21.048;2022-08-07T02:07:50;2.78;;;1.50;;
31768;SDS011;18342;52.132;21.048;2022-08-07T02:10:21;2.08;;;1.30;;
31768;SDS011;18342;52.132;21.048;2022-08-07T02:12:49;2.70;;;1.70;;
31768;SDS011;18342;52.132;21.048;2022-08-07T02:15:22;6.43;;;1.90;;
31768;SDS011;18342;52.132;21.048;2022-08-07T02:17:50;5.75;;;1.55;;
31768;SDS011;18342;52.132;21.048;2022-08-07T02:20:19;2.65;;;1.48;;
31768;SDS011;18342;52.132;21.048;2022-08-07T02:22:47;5.72;;;1.95;;
31768;SDS011;18342;52.132;21.048;2022-08-07T02:25:14;4.82;;;1.63;;
31768;SDS011;18342;52.132;21.048;2022-08-07T02:27:44;2.60;;;1.50;;
31768;SDS011;18342;52.132;21.048;2022-08-07T02:30:11;4.15;;;1.60;;
31768;SDS011;18342;52.132;21.048;2022-08-07T02:32:37;5.40;;;1.33;;
31768;SDS011;18342;52.132;21.048;2022-08-07T02:35:04;1.77;;;1.58;;
31768;SDS011;18342;52.132;21.048;2022-08-07T02:37:32;3.05;;;1.63;;
31768;SDS011;18342;52.132;21.048;2022-08-07T02:40:02;4.82;;;1.35;;
31768;SDS011;18342;52.132;21.048;2022-08-07T02:42:30;3.15;;;1.70;;
31768;SDS011;18342;52.132;21.048;2022-08-07T02:44:57;3.63;;;1.58;;
31768;SDS011;18342;52.132;21.048;2022-08-07T02:47:26;4.47;;;1.60;;
31768;SDS011;18342;52.132;21.048;2022-08-07T02:49:51;5.72;;;1.75;;
31768;SDS011;18342;52.132;21.048;2022-08-07T02:52:21;2.50;;;1.35;;
31768;SDS011;18342;52.132;21.048;2022-08-07T02:54:51;5.80;;;1.80;;
31768;SDS011;18342;52.132;21.048;2022-08-07T02:57:18;3.90;;;1.65;;
31768;SDS011;18342;52.132;21.048;2022-08-07T02:59:48;2.25;;;1.08;;
31768;SDS011;18342;52.132;21.048;2022-08-07T03:02:15;5.10;;;1.60;;
31768;SDS011;18342;52.132;21.048;2022-08-07T03:04:43;5.43;;;1.52;;
31768;SDS011;18342;52.132;21.048;2022-08-07T03:07:10;4.90;;;1.58;;
31768;SDS011;18342;52.132;21.048;2022-08-07T03:09:37;4.45;;;1.35;;
31768;SDS011;18342;52.132;21.048;2022-08-07T03:12:06;3.28;;;1.45;;
31768;SDS011;18342;52.132;21.048;2022-08-07T03:14:33;4.17;;;1.53;;
31768;SDS011;18342;52.132;21.048;2022-08-07T03:17:00;5.10;;;1.58;;
31768;SDS011;18342;52.132;21.048;2022-08-07T03:19:27;2.57;;;1.60;;
31768;SDS011;18342;52.132;21.048;2022-08-07T03:21:53;1.63;;;1.50;;
31768;SDS011;18342;52.132;21.048;2022-08-07T03:24:19;3.92;;;1.90;;
31768;SDS011;18342;52.132;21.048;2022-08-07T03:26:45;3.00;;;1.43;;
31768;SDS011;18342;52.132;21.048;2022-08-07T03:29:15;4.32;;;1.52;;
31768;SDS011;18342;52.132;21.048;2022-08-07T03:31:42;3.80;;;1.20;;
31768;SDS011;18342;52.132;21.048;2022-08-07T03:34:10;2.08;;;1.30;;
31768;SDS011;18342;52.132;21.048;2022-08-07T03:36:38;5.50;;;1.33;;
31768;SDS011;18342;52.132;21.048;2022-08-07T03:39:06;1.90;;;1.35;;
31768;SDS011;18342;52.132;21.048;2022-08-07T03:41:36;4.53;;;1.30;;
31768;SDS011;18342;52.132;21.048;2022-08-07T03:44:02;2.35;;;1.33;;
31768;SDS011;18342;52.132;21.048;2022-08-07T03:46:29;1.63;;;1.52;;
31768;SDS011;18342;52.132;21.048;2022-08-07T03:48:56;2.40;;;1.30;;
31768;SDS011;18342;52.132;21.048;2022-08-07T03:51:22;2.05;;;1.40;;
31768;SDS011;18342;52.132;21.048;2022-08-07T03:53:50;2.50;;;1.27;;
31768;SDS011;18342;52.132;21.048;2022-08-07T03:56:20;4.05;;;1.50;;
31768;SDS011;18342;52.132;21.048;2022-08-07T03:58:47;3.00;;;1.40;;
31768;SDS011;18342;52.132;21.048;2022-08-07T04:01:14;2.97;;;1.53;;
31768;SDS011;18342;52.132;21.048;2022-08-07T04:03:41;1.90;;;1.70;;
31768;SDS011;18342;52.132;21.048;2022-08-07T04:06:08;3.00;;;1.40;;
31768;SDS011;18342;52.132;21.048;2022-08-07T04:08:35;5.17;;;1.43;;
31768;SDS011;18342;52.132;21.048;2022-08-07T04:11:03;3.23;;;1.40;;
31768;SDS011;18342;52.132;21.048;2022-08-07T04:13:30;2.20;;;1.30;;
31768;SDS011;18342;52.132;21.048;2022-08-07T04:15:56;2.25;;;1.25;;
31768;SDS011;18342;52.132;21.048;2022-08-07T04:18:22;2.08;;;1.40;;
31768;SDS011;18342;52.132;21.048;2022-08-07T04:20:48;3.17;;;1.47;;
31768;SDS011;18342;52.132;21.048;2022-08-07T04:23:14;5.07;;;1.60;;
31768;SDS011;18342;52.132;21.048;2022-08-07T04:25:40;2.88;;;1.75;;
31768;SDS011;18342;52.132;21.048;2022-08-07T04:28:06;3.15;;;1.70;;
31768;SDS011;18342;52.132;21.048;2022-08-07T04:30:34;2.45;;;1.20;;
31768;SDS011;18342;52.132;21.048;2022-08-07T04:33:04;2.00;;;1.50;;
31768;SDS011;18342;52.132;21.048;2022-08-07T04:35:32;2.28;;;1.65;;
31768;SDS011;18342;52.132;21.048;2022-08-07T04:37:58;3.80;;;1.35;;
31768;SDS011;18342;52.132;21.048;2022-08-07T04:40:24;3.83;;;1.60;;
31768;SDS011;18342;52.132;21.048;2022-08-07T04:42:49;2.55;;;1.85;;
31768;SDS011;18342;52.132;21.048;2022-08-07T04:45:15;3.13;;;1.50;;
31768;SDS011;18342;52.132;21.048;2022-08-07T04:48:03;3.50;;;1.60;;
31768;SDS011;18342;52.132;21.048;2022-08-07T04:50:38;2.88;;;1.67;;
31768;SDS011;18342;52.132;21.048;2022-08-07T04:56:00;2.03;;;1.77;;
31768;SDS011;18342;52.132;21.048;2022-08-07T04:58:57;8.05;;;1.98;;
31768;SDS011;18342;52.132;21.048;2022-08-07T05:02:01;2.45;;;1.60;;
31768;SDS011;18342;52.132;21.048;2022-08-07T05:10:02;3.23;;;2.00;;
31768;SDS011;18342;52.132;21.048;2022-08-07T05:12:43;2.63;;;1.58;;
31768;SDS011;18342;52.132;21.048;2022-08-07T05:15:25;6.20;;;2.10;;
31768;SDS011;18342;52.132;21.048;2022-08-07T05:17:56;2.63;;;1.60;;
31768;SDS011;18342;52.132;21.048;2022-08-07T05:20:26;5.63;;;1.80;;
31768;SDS011;18342;52.132;21.048;2022-08-07T05:23:06;2.92;;;1.60;;
31768;SDS011;18342;52.132;21.048;2022-08-07T05:25:38;3.05;;;2.08;;
31768;SDS011;18342;52.132;21.048;2022-08-07T05:28:06;3.22;;;1.58;;
31768;SDS011;18342;52.132;21.048;2022-08-07T05:30:33;5.00;;;1.80;;
31768;SDS011;18342;52.132;21.048;2022-08-07T05:33:00;3.03;;;1.30;;
31768;SDS011;18342;52.132;21.048;2022-08-07T05:35:28;3.10;;;1.23;;
31768;SDS011;18342;52.132;21.048;2022-08-07T05:37:57;4.63;;;1.27;;
31768;SDS011;18342;52.132;21.048;2022-08-07T05:40:24;1.70;;;1.00;;
31768;SDS011;18342;52.132;21.048;2022-08-07T05:42:50;5.80;;;1.00;;
31768;SDS011;18342;52.132;21.048;2022-08-07T05:45:17;2.17;;;0.80;;
31768;SDS011;18342;52.132;21.048;2022-08-07T05:47:45;3.85;;;0.95;;
31768;SDS011;18342;52.132;21.048;2022-08-07T05:50:10;2.42;;;0.80;;
31768;SDS011;18342;52.132;21.048;2022-08-07T05:52:38;4.43;;;0.88;;
31768;SDS011;18342;52.132;21.048;2022-08-07T05:55:04;4.80;;;1.35;;
31768;SDS011;18342;52.132;21.048;2022-08-07T05:57:32;1.98;;;0.88;;
31768;SDS011;18342;52.132;21.048;2022-08-07T05:59:59;3.25;;;0.88;;
31768;SDS011;18342;52.132;21.048;2022-08-07T06:02:26;4.18;;;0.93;;
31768;SDS011;18342;52.132;21.048;2022-08-07T06:04:56;4.05;;;0.80;;
31768;SDS011;18342;52.132;21.048;2022-08-07T06:07:26;4.15;;;1.27;;
31768;SDS011;18342;52.132;21.048;2022-08-07T06:09:52;4.63;;;1.00;;
31768;SDS011;18342;52.132;21.048;2022-08-07T06:12:18;2.92;;;1.08;;
31768;SDS011;18342;52.132;21.048;2022-08-07T06:14:44;1.75;;;0.80;;
31768;SDS011;18342;52.132;21.048;2022-08-07T06:17:10;3.45;;;0.77;;
31768;SDS011;18342;52.132;21.048;2022-08-07T06:19:38;5.00;;;1.00;;
31768;SDS011;18342;52.132;21.048;2022-08-07T06:22:05;1.52;;;0.70;;
31768;SDS011;18342;52.132;21.048;2022-08-07T06:24:31;2.92;;;1.52;;
31768;SDS011;18342;52.132;21.048;2022-08-07T06:26:57;3.00;;;0.77;;
31768;SDS011;18342;52.132;21.048;2022-08-07T06:29:26;2.53;;;0.90;;
31768;SDS011;18342;52.132;21.048;2022-08-07T06:31:53;2.67;;;0.80;;
31768;SDS011;18342;52.132;21.048;2022-08-07T06:34:19;2.42;;;0.90;;
31768;SDS011;18342;52.132;21.048;2022-08-07T06:36:48;2.90;;;0.80;;
31768;SDS011;18342;52.132;21.048;2022-08-07T06:39:13;1.00;;;0.73;;
31768;SDS011;18342;52.132;21.048;2022-08-07T06:41:43;3.45;;;0.80;;
31768;SDS011;18342;52.132;21.048;2022-08-07T06:44:11;3.28;;;1.10;;
31768;SDS011;18342;52.132;21.048;2022-08-07T06:46:38;1.88;;;0.70;;
31768;SDS011;18342;52.132;21.048;2022-08-07T06:49:05;3.97;;;0.80;;
31768;SDS011;18342;52.132;21.048;2022-08-07T06:51:32;1.40;;;0.82;;
31768;SDS011;18342;52.132;21.048;2022-08-07T06:54:00;1.60;;;0.77;;
31768;SDS011;18342;52.132;21.048;2022-08-07T06:56:28;2.47;;;0.55;;
31768;SDS011;18342;52.132;21.048;2022-08-07T06:59:05;3.13;;;0.77;;
31768;SDS011;18342;52.132;21.048;2022-08-07T07:01:32;3.50;;;0.80;;
31768;SDS011;18342;52.132;21.048;2022-08-07T07:03:59;2.13;;;0.80;;
31768;SDS011;18342;52.132;21.048;2022-08-07T07:06:26;2.47;;;0.90;;
31768;SDS011;18342;52.132;21.048;2022-08-07T07:08:52;1.88;;;0.80;;
31768;SDS011;18342;52.132;21.048;2022-08-07T07:11:17;3.45;;;0.98;;
31768;SDS011;18342;52.132;21.048;2022-08-07T07:13:44;1.95;;;0.80;;
31768;SDS011;18342;52.132;21.048;2022-08-07T07:16:15;1.33;;;1.00;;
31768;SDS011;18342;52.132;21.048;2022-08-07T07:18:46;1.13;;;0.68;;
31768;SDS011;18342;52.132;21.048;2022-08-07T07:21:25;2.33;;;1.00;;
31768;SDS011;18342;52.132;21.048;2022-08-07T07:23:54;2.08;;;0.90;;
31768;SDS011;18342;52.132;21.048;2022-08-07T07:26:21;2.08;;;0.90;;
31768;SDS011;18342;52.132;21.048;2022-08-07T07:28:51;1.20;;;0.80;;
31768;SDS011;18342;52.132;21.048;2022-08-07T07:31:28;2.13;;;0.80;;
31768;SDS011;18342;52.132;21.048;2022-08-07T07:33:58;1.95;;;0.70;;
31768;SDS011;18342;52.132;21.048;2022-08-07T07:36:28;3.15;;;1.00;;
31768;SDS011;18342;52.132;21.048;2022-08-07T07:38:55;1.35;;;0.80;;
31768;SDS011;18342;52.132;21.048;2022-08-07T07:41:22;2.15;;;0.85;;
31768;SDS011;18342;52.132;21.048;2022-08-07T07:43:50;4.18;;;1.00;;
31768;SDS011;18342;52.132;21.048;2022-08-07T07:46:18;2.08;;;0.88;;
31768;SDS011;18342;52.132;21.048;2022-08-07T07:48:47;4.43;;;0.80;;
31768;SDS011;18342;52.132;21.048;2022-08-07T07:51:14;2.42;;;0.90;;
31768;SDS011;18342;52.132;21.048;2022-08-07T07:53:43;1.67;;;0.73;;
31768;SDS011;18342;52.132;21.048;2022-08-07T07:56:11;2.22;;;0.85;;
31768;SDS011;18342;52.132;21.048;2022-08-07T07:58:38;2.75;;;0.77;;
31768;SDS011;18342;52.132;21.048;2022-08-07T08:01:06;1.58;;;0.77;;
31768;SDS011;18342;52.132;21.048;2022-08-07T08:03:33;4.40;;;1.13;;
31768;SDS011;18342;52.132;21.048;2022-08-07T08:06:01;1.90;;;0.82;;
31768;SDS011;18342;52.132;21.048;2022-08-07T08:08:29;2.35;;;0.80;;
31768;SDS011;18342;52.132;21.048;2022-08-07T08:10:56;2.85;;;0.93;;
31768;SDS011;18342;52.132;21.048;2022-08-07T08:13:26;3.30;;;1.00;;
31768;SDS011;18342;52.132;21.048;2022-08-07T08:15:54;5.03;;;0.85;;
31768;SDS011;18342;52.132;21.048;2022-08-07T08:18:23;3.58;;;0.85;;
31768;SDS011;18342;52.132;21.048;2022-08-07T08:20:51;2.58;;;0.82;;
31768;SDS011;18342;52.132;21.048;2022-08-07T08:23:17;3.42;;;0.95;;
31768;SDS011;18342;52.132;21.048;2022-08-07T08:26:03;2.95;;;0.82;;
31768;SDS011;18342;52.132;21.048;2022-08-07T08:28:50;2.50;;;0.90;;
31768;SDS011;18342;52.132;21.048;2022-08-07T08:31:25;1.52;;;0.70;;
31768;SDS011;18342;52.132;21.048;2022-08-07T08:33:53;1.85;;;0.80;;
31768;SDS011;18342;52.132;21.048;2022-08-07T08:36:23;0.90;;;0.77;;
31768;SDS011;18342;52.132;21.048;2022-08-07T08:38:51;1.17;;;0.85;;
31768;SDS011;18342;52.132;21.048;2022-08-07T08:41:21;2.15;;;0.80;;
31768;SDS011;18342;52.132;21.048;2022-08-07T08:46:24;2.17;;;0.85;;
31768;SDS011;18342;52.132;21.048;2022-08-07T08:49:19;3.03;;;0.80;;
31768;SDS011;18342;52.132;21.048;2022-08-07T08:52:02;1.98;;;0.80;;
31768;SDS011;18342;52.132;21.048;2022-08-07T08:54:40;2.53;;;0.75;;
31768;SDS011;18342;52.132;21.048;2022-08-07T08:57:39;2.25;;;1.00;;
31768;SDS011;18342;52.132;21.048;2022-08-07T09:00:09;1.90;;;0.90;;
31768;SDS011;18342;52.132;21.048;2022-08-07T09:08:28;4.05;;;1.00;;
31768;SDS011;18342;52.132;21.048;2022-08-07T09:11:16;2.17;;;1.00;;
31768;SDS011;18342;52.132;21.048;2022-08-07T09:13:57;1.27;;;0.73;;
31768;SDS011;18342;52.132;21.048;2022-08-07T09:19:16;2.47;;;0.90;;
31768;SDS011;18342;52.132;21.048;2022-08-07T09:30:10;1.90;;;0.95;;
31768;SDS011;18342;52.132;21.048;2022-08-07T09:35:30;3.10;;;1.00;;
31768;SDS011;18342;52.132;21.048;2022-08-07T09:41:27;1.83;;;0.93;;
31768;SDS011;18342;52.132;21.048;2022-08-07T09:46:37;1.15;;;0.80;;
31768;SDS011;18342;52.132;21.048;2022-08-07T09:49:28;1.17;;;0.80;;
31768;SDS011;18342;52.132;21.048;2022-08-07T09:54:37;1.90;;;0.77;;
31768;SDS011;18342;52.132;21.048;2022-08-07T09:59:57;1.38;;;0.70;;
31768;SDS011;18342;52.132;21.048;2022-08-07T10:03:06;3.47;;;0.98;;
31768;SDS011;18342;52.132;21.048;2022-08-07T10:11:26;2.58;;;1.20;;
31768;SDS011;18342;52.132;21.048;2022-08-07T10:25:59;1.38;;;0.73;;
31768;SDS011;18342;52.132;21.048;2022-08-07T10:42:40;1.55;;;0.75;;
31768;SDS011;18342;52.132;21.048;2022-08-07T10:45:02;1.73;;;0.82;;
31768;SDS011;18342;52.132;21.048;2022-08-07T10:53:08;2.60;;;0.75;;
31768;SDS011;18342;52.132;21.048;2022-08-07T10:55:51;2.15;;;0.88;;
31768;SDS011;18342;52.132;21.048;2022-08-07T11:03:55;2.90;;;0.80;;
31768;SDS011;18342;52.132;21.048;2022-08-07T11:09:37;2.10;;;0.70;;
31768;SDS011;18342;52.132;21.048;2022-08-07T11:12:10;1.27;;;0.50;;
31768;SDS011;18342;52.132;21.048;2022-08-07T11:15:16;1.50;;;0.68;;
31768;SDS011;18342;52.132;21.048;2022-08-07T11:20:22;2.20;;;0.77;;
31768;SDS011;18342;52.132;21.048;2022-08-07T11:23:00;1.27;;;0.90;;
31768;SDS011;18342;52.132;21.048;2022-08-07T11:25:34;1.98;;;0.60;;
31768;SDS011;18342;52.132;21.048;2022-08-07T11:28:07;3.67;;;0.88;;
31768;SDS011;18342;52.132;21.048;2022-08-07T11:38:52;1.27;;;0.68;;
31768;SDS011;18342;52.132;21.048;2022-08-07T11:41:59;1.08;;;0.80;;
31768;SDS011;18342;52.132;21.048;2022-08-07T11:45:12;1.70;;;0.70;;
31768;SDS011;18342;52.132;21.048;2022-08-07T11:47:24;1.20;;;0.73;;
31768;SDS011;18342;52.132;21.048;2022-08-07T11:50:12;0.85;;;0.55;;
31768;SDS011;18342;52.132;21.048;2022-08-07T11:52:59;1.55;;;0.75;;
31768;SDS011;18342;52.132;21.048;2022-08-07T11:58:59;1.30;;;0.50;;
31768;SDS011;18342;52.132;21.048;2022-08-07T12:07:00;0.65;;;0.40;;
31768;SDS011;18342;52.132;21.048;2022-08-07T12:09:36;0.57;;;0.57;;
31768;SDS011;18342;52.132;21.048;2022-08-07T12:12:17;1.90;;;0.63;;
31768;SDS011;18342;52.132;21.048;2022-08-07T12:15:05;1.00;;;0.70;;
31768;SDS011;18342;52.132;21.048;2022-08-07T12:17:47;2.75;;;0.80;;
31768;SDS011;18342;52.132;21.048;2022-08-07T12:20:26;1.95;;;0.90;;
31768;SDS011;18342;52.132;21.048;2022-08-07T12:23:15;1.17;;;0.60;;
31768;SDS011;18342;52.132;21.048;2022-08-07T12:25:55;0.80;;;0.63;;
31768;SDS011;18342;52.132;21.048;2022-08-07T12:31:13;1.90;;;0.60;;
31768;SDS011;18342;52.132;21.048;2022-08-07T12:33:54;0.90;;;0.55;;
31768;SDS011;18342;52.132;21.048;2022-08-07T12:36:21;0.90;;;0.70;;
31768;SDS011;18342;52.132;21.048;2022-08-07T12:38:48;2.25;;;0.57;;
31768;SDS011;18342;52.132;21.048;2022-08-07T12:41:14;0.47;;;0.40;;
31768;SDS011;18342;52.132;21.048;2022-08-07T12:43:42;1.42;;;0.57;;
31768;SDS011;18342;52.132;21.048;2022-08-07T12:46:29;1.95;;;0.70;;
31768;SDS011;18342;52.132;21.048;2022-08-07T12:48:57;0.60;;;0.60;;
31768;SDS011;18342;52.132;21.048;2022-08-07T12:51:31;0.85;;;0.50;;
31768;SDS011;18342;52.132;21.048;2022-08-07T12:54:07;0.95;;;0.50;;
31768;SDS011;18342;52.132;21.048;2022-08-07T12:56:48;1.02;;;0.52;;
31768;SDS011;18342;52.132;21.048;2022-08-07T12:59:18;0.85;;;0.60;;
31768;SDS011;18342;52.132;21.048;2022-08-07T13:15:58;0.40;;;0.40;;
31768;SDS011;18342;52.132;21.048;2022-08-07T13:18:47;0.30;;;0.30;;
31768;SDS011;18342;52.132;21.048;2022-08-07T13:21:26;0.60;;;0.50;;
31768;SDS011;18342;52.132;21.048;2022-08-07T13:26:40;0.75;;;0.40;;
31768;SDS011;18342;52.132;21.048;2022-08-07T13:29:13;1.35;;;0.50;;
31768;SDS011;18342;52.132;21.048;2022-08-07T13:31:56;0.32;;;0.32;;
31768;SDS011;18342;52.132;21.048;2022-08-07T13:34:34;2.83;;;0.57;;
31768;SDS011;18342;52.132;21.048;2022-08-07T13:42:44;2.03;;;0.55;;
31768;SDS011;18342;52.132;21.048;2022-08-07T13:45:13;3.53;;;0.70;;
31768;SDS011;18342;52.132;21.048;2022-08-07T13:47:41;0.50;;;0.50;;
31768;SDS011;18342;52.132;21.048;2022-08-07T13:50:09;2.42;;;0.63;;
31768;SDS011;18342;52.132;21.048;2022-08-07T13:52:38;1.02;;;0.68;;
31768;SDS011;18342;52.132;21.048;2022-08-07T13:55:07;0.60;;;0.60;;
31768;SDS011;18342;52.132;21.048;2022-08-07T13:57:39;2.20;;;0.65;;
31768;SDS011;18342;52.132;21.048;2022-08-07T14:00:08;1.05;;;0.75;;
31768;SDS011;18342;52.132;21.048;2022-08-07T14:02:35;2.53;;;0.77;;
31768;SDS011;18342;52.132;21.048;2022-08-07T14:05:06;0.95;;;0.45;;
31768;SDS011;18342;52.132;21.048;2022-08-07T14:07:40;2.20;;;0.70;;
31768;SDS011;18342;52.132;21.048;2022-08-07T14:10:10;1.85;;;0.68;;
31768;SDS011;18342;52.132;21.048;2022-08-07T14:15:34;1.25;;;0.60;;
31768;SDS011;18342;52.132;21.048;2022-08-07T14:18:10;1.83;;;0.70;;
31768;SDS011;18342;52.132;21.048;2022-08-07T14:20:40;1.50;;;0.50;;
31768;SDS011;18342;52.132;21.048;2022-08-07T14:23:13;0.65;;;0.43;;
31768;SDS011;18342;52.132;21.048;2022-08-07T14:28:54;0.60;;;0.60;;
31768;SDS011;18342;52.132;21.048;2022-08-07T14:31:23;1.42;;;0.50;;
31768;SDS011;18342;52.132;21.048;2022-08-07T14:33:52;0.93;;;0.70;;
31768;SDS011;18342;52.132;21.048;2022-08-07T14:36:20;1.77;;;0.50;;
31768;SDS011;18342;52.132;21.048;2022-08-07T14:38:47;0.85;;;0.50;;
31768;SDS011;18342;52.132;21.048;2022-08-07T14:41:21;1.65;;;0.60;;
31768;SDS011;18342;52.132;21.048;2022-08-07T14:43:51;3.20;;;0.70;;
31768;SDS011;18342;52.132;21.048;2022-08-07T14:46:18;3.20;;;0.60;;
31768;SDS011;18342;52.132;21.048;2022-08-07T14:48:46;1.00;;;0.65;;
31768;SDS011;18342;52.132;21.048;2022-08-07T14:51:18;0.52;;;0.52;;
31768;SDS011;18342;52.132;21.048;2022-08-07T14:53:51;2.15;;;0.60;;
31768;SDS011;18342;52.132;21.048;2022-08-07T14:56:19;1.15;;;0.88;;
31768;SDS011;18342;52.132;21.048;2022-08-07T14:58:53;1.75;;;0.73;;
31768;SDS011;18342;52.132;21.048;2022-08-07T15:01:24;0.68;;;0.40;;
31768;SDS011;18342;52.132;21.048;2022-08-07T15:03:57;0.68;;;0.60;;
31768;SDS011;18342;52.132;21.048;2022-08-07T15:06:26;1.67;;;0.70;;
31768;SDS011;18342;52.132;21.048;2022-08-07T15:09:01;1.10;;;0.65;;
31768;SDS011;18342;52.132;21.048;2022-08-07T15:11:30;1.08;;;0.60;;
31768;SDS011;18342;52.132;21.048;2022-08-07T15:14:02;3.03;;;0.60;;
31768;SDS011;18342;52.132;21.048;2022-08-07T15:16:34;2.70;;;0.60;;
31768;SDS011;18342;52.132;21.048;2022-08-07T15:19:07;1.88;;;0.73;;
31768;SDS011;18342;52.132;21.048;2022-08-07T15:21:40;1.20;;;0.70;;
31768;SDS011;18342;52.132;21.048;2022-08-07T15:24:19;2.13;;;0.55;;
31768;SDS011;18342;52.132;21.048;2022-08-07T15:26:55;1.00;;;0.70;;
31768;SDS011;18342;52.132;21.048;2022-08-07T15:29:30;0.80;;;0.60;;
31768;SDS011;18342;52.132;21.048;2022-08-07T15:32:00;1.48;;;0.63;;
31768;SDS011;18342;52.132;21.048;2022-08-07T15:34:31;1.42;;;0.63;;
31768;SDS011;18342;52.132;21.048;2022-08-07T15:37:01;1.40;;;0.70;;
31768;SDS011;18342;52.132;21.048;2022-08-07T15:39:29;0.70;;;0.63;;
31768;SDS011;18342;52.132;21.048;2022-08-07T15:42:00;3.85;;;0.70;;
31768;SDS011;18342;52.132;21.048;2022-08-07T15:44:29;2.08;;;0.68;;
31768;SDS011;18342;52.132;21.048;2022-08-07T15:47:06;1.15;;;0.75;;
31768;SDS011;18342;52.132;21.048;2022-08-07T15:49:33;1.75;;;0.70;;
31768;SDS011;18342;52.132;21.048;2022-08-07T15:52:00;0.80;;;0.50;;
31768;SDS011;18342;52.132;21.048;2022-08-07T15:54:32;0.80;;;0.80;;
31768;SDS011;18342;52.132;21.048;2022-08-07T15:57:00;1.25;;;0.70;;
31768;SDS011;18342;52.132;21.048;2022-08-07T15:59:29;1.73;;;0.68;;
31768;SDS011;18342;52.132;21.048;2022-08-07T16:01:55;0.95;;;0.77;;
31768;SDS011;18342;52.132;21.048;2022-08-07T16:04:25;1.65;;;0.70;;
31768;SDS011;18342;52.132;21.048;2022-08-07T16:06:59;1.88;;;0.73;;
31768;SDS011;18342;52.132;21.048;2022-08-07T16:09:31;1.23;;;0.70;;
31768;SDS011;18342;52.132;21.048;2022-08-07T16:31:38;1.42;;;0.50;;
31768;SDS011;18342;52.132;21.048;2022-08-07T16:54:50;1.45;;;0.70;;
31768;SDS011;18342;52.132;21.048;2022-08-07T17:07:52;2.03;;;0.88;;
31768;SDS011;18342;52.132;21.048;2022-08-07T17:20:49;2.78;;;0.80;;
31768;SDS011;18342;52.132;21.048;2022-08-07T17:34:46;3.17;;;0.80;;
31768;SDS011;18342;52.132;21.048;2022-08-07T17:39:57;1.05;;;0.80;;
31768;SDS011;18342;52.132;21.048;2022-08-07T17:45:11;3.08;;;1.15;;
31768;SDS011;18342;52.132;21.048;2022-08-07T17:50:41;4.78;;;1.17;;
31768;SDS011;18342;52.132;21.048;2022-08-07T17:56:31;3.03;;;1.13;;
31768;SDS011;18342;52.132;21.048;2022-08-07T17:59:10;2.95;;;1.05;;
31768;SDS011;18342;52.132;21.048;2022-08-07T18:01:52;2.35;;;0.80;;
31768;SDS011;18342;52.132;21.048;2022-08-07T18:05:09;2.78;;;1.17;;
31768;SDS011;18342;52.132;21.048;2022-08-07T18:07:51;3.13;;;0.85;;
31768;SDS011;18342;52.132;21.048;2022-08-07T18:10:36;2.55;;;0.85;;
31768;SDS011;18342;52.132;21.048;2022-08-07T18:13:32;3.47;;;1.10;;
31768;SDS011;18342;52.132;21.048;2022-08-07T18:21:43;4.38;;;1.00;;
31768;SDS011;18342;52.132;21.048;2022-08-07T18:24:20;3.03;;;1.13;;
31768;SDS011;18342;52.132;21.048;2022-08-07T18:38:27;1.63;;;0.90;;
31768;SDS011;18342;52.132;21.048;2022-08-07T18:49:23;1.35;;;1.10;;
31768;SDS011;18342;52.132;21.048;2022-08-07T18:55:02;5.20;;;0.95;;
31768;SDS011;18342;52.132;21.048;2022-08-07T19:00:21;1.55;;;1.00;;
31768;SDS011;18342;52.132;21.048;2022-08-07T19:03:15;2.80;;;0.98;;
31768;SDS011;18342;52.132;21.048;2022-08-07T19:11:13;2.03;;;1.00;;
31768;SDS011;18342;52.132;21.048;2022-08-07T19:19:30;3.78;;;1.10;;
31768;SDS011;18342;52.132;21.048;2022-08-07T19:22:14;3.35;;;1.00;;
31768;SDS011;18342;52.132;21.048;2022-08-07T19:24:48;1.27;;;0.93;;